Terminal Aerodrome Forecast
Issued by NWS

Home | Current Version | Previous Version | Text Only | Print | Product List | Glossary On
Versions: 1 2 3 4 5 6 7 8 9 10 11 12 13
000
FTUS46 KMTR 110500
TAFSJC
TAF
KSJC 110529Z 1106/1206 13005KT P6SM SKC
     FM110800 13010KT P6SM SCT015
      TEMPO 1112/1116 BKN015
     FM111700 16004KT P6SM FEW015
     FM112100 29008KT P6SM FEW020=

USA.gov is the U.S. government's official web portal to all federal, state and local government web resources and services.